sensor_id;sensor_type;location;lat;lon;timestamp;temperature;humidity
17984;DHT22;9117;52.420;20.728;2023-05-10T00:01:38;7.90;73.40
17984;DHT22;9117;52.420;20.728;2023-05-10T00:04:07;7.90;74.70
17984;DHT22;9117;52.420;20.728;2023-05-10T00:06:35;8.00;76.70
17984;DHT22;9117;52.420;20.728;2023-05-10T00:09:03;7.90;75.70
17984;DHT22;9117;52.420;20.728;2023-05-10T00:11:33;7.90;75.70
17984;DHT22;9117;52.420;20.728;2023-05-10T00:14:01;8.10;75.40
17984;DHT22;9117;52.420;20.728;2023-05-10T00:16:29;7.90;77.00
17984;DHT22;9117;52.420;20.728;2023-05-10T00:18:58;7.90;76.70
17984;DHT22;9117;52.420;20.728;2023-05-10T00:21:26;7.80;76.90
17984;DHT22;9117;52.420;20.728;2023-05-10T00:23:55;7.70;76.00
17984;DHT22;9117;52.420;20.728;2023-05-10T00:26:23;7.70;75.60
17984;DHT22;9117;52.420;20.728;2023-05-10T00:28:52;7.60;76.40
17984;DHT22;9117;52.420;20.728;2023-05-10T00:31:20;7.60;79.10
17984;DHT22;9117;52.420;20.728;2023-05-10T00:33:49;7.50;78.80
17984;DHT22;9117;52.420;20.728;2023-05-10T00:36:17;7.50;78.90
17984;DHT22;9117;52.420;20.728;2023-05-10T00:38:45;7.50;79.60
17984;DHT22;9117;52.420;20.728;2023-05-10T00:41:13;7.50;79.30
17984;DHT22;9117;52.420;20.728;2023-05-10T00:43:42;7.50;79.10
17984;DHT22;9117;52.420;20.728;2023-05-10T00:46:12;7.40;81.00
17984;DHT22;9117;52.420;20.728;2023-05-10T00:48:42;7.40;80.60
17984;DHT22;9117;52.420;20.728;2023-05-10T00:51:11;7.50;79.20
17984;DHT22;9117;52.420;20.728;2023-05-10T00:53:39;7.50;80.10
17984;DHT22;9117;52.420;20.728;2023-05-10T00:56:08;7.40;80.10
17984;DHT22;9117;52.420;20.728;2023-05-10T00:58:36;7.40;81.20
17984;DHT22;9117;52.420;20.728;2023-05-10T01:01:05;7.30;81.10
17984;DHT22;9117;52.420;20.728;2023-05-10T01:03:36;7.30;83.30
17984;DHT22;9117;52.420;20.728;2023-05-10T01:06:05;7.30;82.70
17984;DHT22;9117;52.420;20.728;2023-05-10T01:08:33;7.30;83.00
17984;DHT22;9117;52.420;20.728;2023-05-10T01:11:01;7.30;82.00
17984;DHT22;9117;52.420;20.728;2023-05-10T01:13:33;7.30;84.10
17984;DHT22;9117;52.420;20.728;2023-05-10T01:16:03;7.20;84.70
17984;DHT22;9117;52.420;20.728;2023-05-10T01:18:35;7.20;83.70
17984;DHT22;9117;52.420;20.728;2023-05-10T01:21:14;7.10;85.50
17984;DHT22;9117;52.420;20.728;2023-05-10T01:26:54;7.10;85.90
17984;DHT22;9117;52.420;20.728;2023-05-10T01:29:53;7.00;84.30
17984;DHT22;9117;52.420;20.728;2023-05-10T01:32:46;7.00;86.80
17984;DHT22;9117;52.420;20.728;2023-05-10T01:35:21;7.10;87.20
17984;DHT22;9117;52.420;20.728;2023-05-10T01:37:58;7.00;87.40
17984;DHT22;9117;52.420;20.728;2023-05-10T01:40:32;7.00;88.50
17984;DHT22;9117;52.420;20.728;2023-05-10T01:43:03;7.00;87.30
17984;DHT22;9117;52.420;20.728;2023-05-10T01:45:39;6.90;86.90
17984;DHT22;9117;52.420;20.728;2023-05-10T01:48:11;6.90;87.20
17984;DHT22;9117;52.420;20.728;2023-05-10T01:50:43;6.80;86.70
17984;DHT22;9117;52.420;20.728;2023-05-10T01:53:16;6.80;86.00
17984;DHT22;9117;52.420;20.728;2023-05-10T01:55:47;6.80;85.80
17984;DHT22;9117;52.420;20.728;2023-05-10T01:58:20;6.70;85.60
17984;DHT22;9117;52.420;20.728;2023-05-10T02:00:50;6.80;85.80
17984;DHT22;9117;52.420;20.728;2023-05-10T02:03:23;6.70;86.10
17984;DHT22;9117;52.420;20.728;2023-05-10T02:05:53;6.70;84.50
17984;DHT22;9117;52.420;20.728;2023-05-10T02:08:22;6.80;85.90
17984;DHT22;9117;52.420;20.728;2023-05-10T02:10:53;6.70;83.30
17984;DHT22;9117;52.420;20.728;2023-05-10T02:13:23;6.60;85.30
17984;DHT22;9117;52.420;20.728;2023-05-10T02:15:53;6.50;85.60
17984;DHT22;9117;52.420;20.728;2023-05-10T02:18:24;6.60;86.80
17984;DHT22;9117;52.420;20.728;2023-05-10T02:20:54;6.50;85.60
17984;DHT22;9117;52.420;20.728;2023-05-10T02:23:23;6.50;88.10
17984;DHT22;9117;52.420;20.728;2023-05-10T02:25:54;6.30;86.40
17984;DHT22;9117;52.420;20.728;2023-05-10T02:28:23;6.50;87.20
17984;DHT22;9117;52.420;20.728;2023-05-10T02:30:53;6.50;87.60
17984;DHT22;9117;52.420;20.728;2023-05-10T02:33:23;6.50;89.50
17984;DHT22;9117;52.420;20.728;2023-05-10T02:35:52;6.40;88.80
17984;DHT22;9117;52.420;20.728;2023-05-10T02:38:21;6.30;88.70
17984;DHT22;9117;52.420;20.728;2023-05-10T02:40:51;6.30;86.40
17984;DHT22;9117;52.420;20.728;2023-05-10T02:43:23;6.30;87.80
17984;DHT22;9117;52.420;20.728;2023-05-10T02:45:52;6.30;89.00
17984;DHT22;9117;52.420;20.728;2023-05-10T02:48:20;6.20;87.90
17984;DHT22;9117;52.420;20.728;2023-05-10T02:50:52;6.30;90.10
17984;DHT22;9117;52.420;20.728;2023-05-10T02:53:26;6.30;90.30
17984;DHT22;9117;52.420;20.728;2023-05-10T02:56:00;6.30;89.20
17984;DHT22;9117;52.420;20.728;2023-05-10T02:58:30;6.30;89.80
17984;DHT22;9117;52.420;20.728;2023-05-10T03:00:59;6.30;90.00
17984;DHT22;9117;52.420;20.728;2023-05-10T03:03:27;6.20;90.40
17984;DHT22;9117;52.420;20.728;2023-05-10T03:05:57;6.20;90.50
17984;DHT22;9117;52.420;20.728;2023-05-10T03:08:26;6.20;90.30
17984;DHT22;9117;52.420;20.728;2023-05-10T03:11:14;6.10;91.10
17984;DHT22;9117;52.420;20.728;2023-05-10T03:13:49;6.10;90.30
17984;DHT22;9117;52.420;20.728;2023-05-10T03:16:27;6.00;91.90
17984;DHT22;9117;52.420;20.728;2023-05-10T03:19:02;5.90;91.40
17984;DHT22;9117;52.420;20.728;2023-05-10T03:21:38;6.10;91.50
17984;DHT22;9117;52.420;20.728;2023-05-10T03:24:10;6.00;91.80
17984;DHT22;9117;52.420;20.728;2023-05-10T03:26:43;5.90;91.70
17984;DHT22;9117;52.420;20.728;2023-05-10T03:29:13;5.90;91.70
17984;DHT22;9117;52.420;20.728;2023-05-10T03:31:42;6.00;91.20
17984;DHT22;9117;52.420;20.728;2023-05-10T03:34:11;6.10;91.60
17984;DHT22;9117;52.420;20.728;2023-05-10T03:36:40;6.10;93.00
17984;DHT22;9117;52.420;20.728;2023-05-10T03:39:09;6.10;92.40
17984;DHT22;9117;52.420;20.728;2023-05-10T03:41:37;6.20;92.80
17984;DHT22;9117;52.420;20.728;2023-05-10T03:44:05;6.30;92.20
17984;DHT22;9117;52.420;20.728;2023-05-10T03:46:33;6.20;92.40
17984;DHT22;9117;52.420;20.728;2023-05-10T03:49:01;6.10;93.10
17984;DHT22;9117;52.420;20.728;2023-05-10T03:51:29;6.20;93.60
17984;DHT22;9117;52.420;20.728;2023-05-10T03:53:59;6.20;93.20
17984;DHT22;9117;52.420;20.728;2023-05-10T03:56:27;6.30;92.90
17984;DHT22;9117;52.420;20.728;2023-05-10T03:58:56;6.40;92.80
17984;DHT22;9117;52.420;20.728;2023-05-10T04:01:24;6.50;92.00
17984;DHT22;9117;52.420;20.728;2023-05-10T04:03:52;6.50;93.10
17984;DHT22;9117;52.420;20.728;2023-05-10T04:06:21;6.70;93.50
17984;DHT22;9117;52.420;20.728;2023-05-10T04:08:49;6.80;93.30
17984;DHT22;9117;52.420;20.728;2023-05-10T04:11:18;6.80;92.50
17984;DHT22;9117;52.420;20.728;2023-05-10T04:13:48;6.90;92.00
17984;DHT22;9117;52.420;20.728;2023-05-10T04:16:16;7.10;91.40
17984;DHT22;9117;52.420;20.728;2023-05-10T04:18:45;7.10;91.50
17984;DHT22;9117;52.420;20.728;2023-05-10T04:21:13;7.20;91.70
17984;DHT22;9117;52.420;20.728;2023-05-10T04:23:41;7.30;91.10
17984;DHT22;9117;52.420;20.728;2023-05-10T04:26:09;7.30;90.50
17984;DHT22;9117;52.420;20.728;2023-05-10T04:28:39;7.40;91.50
17984;DHT22;9117;52.420;20.728;2023-05-10T04:31:09;7.50;90.70
17984;DHT22;9117;52.420;20.728;2023-05-10T04:33:37;7.60;91.30
17984;DHT22;9117;52.420;20.728;2023-05-10T04:36:06;7.70;90.80
17984;DHT22;9117;52.420;20.728;2023-05-10T04:38:34;7.70;90.20
17984;DHT22;9117;52.420;20.728;2023-05-10T04:41:06;7.80;90.70
17984;DHT22;9117;52.420;20.728;2023-05-10T04:43:34;7.90;90.70
17984;DHT22;9117;52.420;20.728;2023-05-10T04:46:05;8.00;91.20
17984;DHT22;9117;52.420;20.728;2023-05-10T04:48:34;8.00;90.10
17984;DHT22;9117;52.420;20.728;2023-05-10T04:51:02;8.10;89.20
17984;DHT22;9117;52.420;20.728;2023-05-10T04:53:31;8.20;89.50
17984;DHT22;9117;52.420;20.728;2023-05-10T04:55:59;8.20;88.90
17984;DHT22;9117;52.420;20.728;2023-05-10T04:58:28;8.30;88.90
17984;DHT22;9117;52.420;20.728;2023-05-10T05:00:56;8.40;89.00
17984;DHT22;9117;52.420;20.728;2023-05-10T05:03:25;8.40;89.20
17984;DHT22;9117;52.420;20.728;2023-05-10T05:05:54;8.50;87.90
17984;DHT22;9117;52.420;20.728;2023-05-10T05:08:22;8.60;87.80
17984;DHT22;9117;52.420;20.728;2023-05-10T05:10:50;8.70;88.80
17984;DHT22;9117;52.420;20.728;2023-05-10T05:13:19;8.80;88.80
17984;DHT22;9117;52.420;20.728;2023-05-10T05:15:47;8.90;88.10
17984;DHT22;9117;52.420;20.728;2023-05-10T05:18:15;9.00;87.60
17984;DHT22;9117;52.420;20.728;2023-05-10T05:20:45;9.10;87.50
17984;DHT22;9117;52.420;20.728;2023-05-10T05:23:13;9.20;87.30
17984;DHT22;9117;52.420;20.728;2023-05-10T05:25:41;9.30;86.80
17984;DHT22;9117;52.420;20.728;2023-05-10T05:28:09;9.40;84.80
17984;DHT22;9117;52.420;20.728;2023-05-10T05:30:37;9.50;83.50
17984;DHT22;9117;52.420;20.728;2023-05-10T05:33:05;9.50;84.10
17984;DHT22;9117;52.420;20.728;2023-05-10T05:35:34;9.70;84.40
17984;DHT22;9117;52.420;20.728;2023-05-10T05:38:03;9.80;82.50
17984;DHT22;9117;52.420;20.728;2023-05-10T05:40:32;9.90;83.00
17984;DHT22;9117;52.420;20.728;2023-05-10T05:43:00;10.00;80.90
17984;DHT22;9117;52.420;20.728;2023-05-10T05:45:28;10.10;81.10
17984;DHT22;9117;52.420;20.728;2023-05-10T05:47:56;10.20;79.60
17984;DHT22;9117;52.420;20.728;2023-05-10T05:50:25;10.30;80.70
17984;DHT22;9117;52.420;20.728;2023-05-10T05:52:53;10.40;78.20
17984;DHT22;9117;52.420;20.728;2023-05-10T05:55:23;10.50;76.90
17984;DHT22;9117;52.420;20.728;2023-05-10T05:57:52;10.60;76.10
17984;DHT22;9117;52.420;20.728;2023-05-10T06:00:21;10.70;76.70
17984;DHT22;9117;52.420;20.728;2023-05-10T06:02:49;10.80;76.70
17984;DHT22;9117;52.420;20.728;2023-05-10T06:05:17;10.90;75.80
17984;DHT22;9117;52.420;20.728;2023-05-10T06:07:46;11.00;74.20
17984;DHT22;9117;52.420;20.728;2023-05-10T06:10:15;11.10;74.70
17984;DHT22;9117;52.420;20.728;2023-05-10T06:12:44;11.20;74.50
17984;DHT22;9117;52.420;20.728;2023-05-10T06:15:12;11.20;71.00
17984;DHT22;9117;52.420;20.728;2023-05-10T06:17:41;11.20;72.40
17984;DHT22;9117;52.420;20.728;2023-05-10T06:20:11;11.30;70.60
17984;DHT22;9117;52.420;20.728;2023-05-10T06:22:39;11.30;70.20
17984;DHT22;9117;52.420;20.728;2023-05-10T06:25:08;11.40;70.80
17984;DHT22;9117;52.420;20.728;2023-05-10T06:27:37;11.50;71.50
17984;DHT22;9117;52.420;20.728;2023-05-10T06:30:08;11.70;69.00
17984;DHT22;9117;52.420;20.728;2023-05-10T06:32:39;11.80;69.60
17984;DHT22;9117;52.420;20.728;2023-05-10T06:35:08;11.90;70.30
17984;DHT22;9117;52.420;20.728;2023-05-10T06:37:36;11.90;68.20
17984;DHT22;9117;52.420;20.728;2023-05-10T06:40:06;12.00;66.50
17984;DHT22;9117;52.420;20.728;2023-05-10T06:42:34;12.00;67.70
17984;DHT22;9117;52.420;20.728;2023-05-10T06:45:03;12.10;67.30
17984;DHT22;9117;52.420;20.728;2023-05-10T06:47:33;12.20;67.20
17984;DHT22;9117;52.420;20.728;2023-05-10T06:50:05;12.30;64.40
17984;DHT22;9117;52.420;20.728;2023-05-10T06:52:34;12.40;65.60
17984;DHT22;9117;52.420;20.728;2023-05-10T06:55:02;12.50;65.50
17984;DHT22;9117;52.420;20.728;2023-05-10T06:57:31;12.70;64.10
17984;DHT22;9117;52.420;20.728;2023-05-10T06:59:59;12.80;62.30
17984;DHT22;9117;52.420;20.728;2023-05-10T07:02:28;12.90;63.20
17984;DHT22;9117;52.420;20.728;2023-05-10T07:04:57;13.00;63.50
17984;DHT22;9117;52.420;20.728;2023-05-10T07:07:28;13.10;63.20
17984;DHT22;9117;52.420;20.728;2023-05-10T07:09:57;13.30;62.70
17984;DHT22;9117;52.420;20.728;2023-05-10T07:12:25;13.30;61.90
17984;DHT22;9117;52.420;20.728;2023-05-10T07:14:53;13.50;61.30
17984;DHT22;9117;52.420;20.728;2023-05-10T07:17:21;13.60;58.90
17984;DHT22;9117;52.420;20.728;2023-05-10T07:19:50;13.70;56.90
17984;DHT22;9117;52.420;20.728;2023-05-10T07:22:19;13.60;55.00
17984;DHT22;9117;52.420;20.728;2023-05-10T07:24:48;13.70;52.30
17984;DHT22;9117;52.420;20.728;2023-05-10T07:27:16;13.60;48.90
17984;DHT22;9117;52.420;20.728;2023-05-10T07:29:44;13.70;48.10
17984;DHT22;9117;52.420;20.728;2023-05-10T07:32:12;13.80;50.40
17984;DHT22;9117;52.420;20.728;2023-05-10T07:34:40;14.00;51.20
17984;DHT22;9117;52.420;20.728;2023-05-10T07:37:09;14.10;49.30
17984;DHT22;9117;52.420;20.728;2023-05-10T07:39:39;14.00;43.30
17984;DHT22;9117;52.420;20.728;2023-05-10T07:42:07;13.90;45.80
17984;DHT22;9117;52.420;20.728;2023-05-10T07:44:35;14.00;45.10
17984;DHT22;9117;52.420;20.728;2023-05-10T07:47:04;14.00;44.00
17984;DHT22;9117;52.420;20.728;2023-05-10T07:49:32;14.20;44.60
17984;DHT22;9117;52.420;20.728;2023-05-10T07:52:00;14.10;44.20
17984;DHT22;9117;52.420;20.728;2023-05-10T07:54:28;14.20;44.60
17984;DHT22;9117;52.420;20.728;2023-05-10T07:56:58;14.30;41.50
17984;DHT22;9117;52.420;20.728;2023-05-10T07:59:26;14.40;41.00
17984;DHT22;9117;52.420;20.728;2023-05-10T08:01:54;14.30;40.30
17984;DHT22;9117;52.420;20.728;2023-05-10T08:04:23;14.40;41.00
17984;DHT22;9117;52.420;20.728;2023-05-10T08:06:51;14.60;41.70
17984;DHT22;9117;52.420;20.728;2023-05-10T08:09:19;14.40;40.30
17984;DHT22;9117;52.420;20.728;2023-05-10T08:11:50;14.50;40.70
17984;DHT22;9117;52.420;20.728;2023-05-10T08:14:20;14.60;41.40
17984;DHT22;9117;52.420;20.728;2023-05-10T08:16:48;14.70;39.60
17984;DHT22;9117;52.420;20.728;2023-05-10T08:19:16;14.60;38.20
17984;DHT22;9117;52.420;20.728;2023-05-10T08:21:46;14.60;39.10
17984;DHT22;9117;52.420;20.728;2023-05-10T08:24:14;14.70;39.50
17984;DHT22;9117;52.420;20.728;2023-05-10T08:26:43;14.80;38.90
17984;DHT22;9117;52.420;20.728;2023-05-10T08:29:11;14.90;38.60
17984;DHT22;9117;52.420;20.728;2023-05-10T08:31:43;14.80;38.10
17984;DHT22;9117;52.420;20.728;2023-05-10T08:34:12;14.90;40.10
17984;DHT22;9117;52.420;20.728;2023-05-10T08:36:40;15.00;40.20
17984;DHT22;9117;52.420;20.728;2023-05-10T08:39:08;15.20;40.90
17984;DHT22;9117;52.420;20.728;2023-05-10T08:41:54;15.20;40.50
17984;DHT22;9117;52.420;20.728;2023-05-10T08:44:25;15.40;40.20
17984;DHT22;9117;52.420;20.728;2023-05-10T08:46:55;15.40;39.90
17984;DHT22;9117;52.420;20.728;2023-05-10T08:49:26;15.40;39.00
17984;DHT22;9117;52.420;20.728;2023-05-10T08:51:56;15.30;37.70
17984;DHT22;9117;52.420;20.728;2023-05-10T08:54:25;15.50;40.20
17984;DHT22;9117;52.420;20.728;2023-05-10T08:56:53;15.50;38.70
17984;DHT22;9117;52.420;20.728;2023-05-10T08:59:22;15.40;37.10
17984;DHT22;9117;52.420;20.728;2023-05-10T09:01:50;15.50;37.50
17984;DHT22;9117;52.420;20.728;2023-05-10T09:04:21;15.70;38.00
17984;DHT22;9117;52.420;20.728;2023-05-10T09:06:50;15.80;38.30
17984;DHT22;9117;52.420;20.728;2023-05-10T09:09:19;15.90;37.70
17984;DHT22;9117;52.420;20.728;2023-05-10T09:11:48;15.80;37.80
17984;DHT22;9117;52.420;20.728;2023-05-10T09:14:16;15.80;37.80
17984;DHT22;9117;52.420;20.728;2023-05-10T09:16:45;15.90;36.80
17984;DHT22;9117;52.420;20.728;2023-05-10T09:19:13;15.80;36.00
17984;DHT22;9117;52.420;20.728;2023-05-10T09:21:43;15.70;35.00
17984;DHT22;9117;52.420;20.728;2023-05-10T09:24:12;15.70;36.70
17984;DHT22;9117;52.420;20.728;2023-05-10T09:26:46;15.80;37.50
17984;DHT22;9117;52.420;20.728;2023-05-10T09:29:15;15.90;37.80
17984;DHT22;9117;52.420;20.728;2023-05-10T09:31:46;16.10;36.10
17984;DHT22;9117;52.420;20.728;2023-05-10T09:34:18;16.10;37.50
17984;DHT22;9117;52.420;20.728;2023-05-10T09:36:58;16.40;36.60
17984;DHT22;9117;52.420;20.728;2023-05-10T09:39:31;16.30;36.50
17984;DHT22;9117;52.420;20.728;2023-05-10T09:42:02;16.40;35.40
17984;DHT22;9117;52.420;20.728;2023-05-10T09:44:31;16.40;35.30
17984;DHT22;9117;52.420;20.728;2023-05-10T09:47:00;16.50;36.20
17984;DHT22;9117;52.420;20.728;2023-05-10T09:49:29;16.30;35.70
17984;DHT22;9117;52.420;20.728;2023-05-10T09:52:02;16.40;36.20
17984;DHT22;9117;52.420;20.728;2023-05-10T09:54:31;16.50;37.00
17984;DHT22;9117;52.420;20.728;2023-05-10T09:57:00;16.60;35.30
17984;DHT22;9117;52.420;20.728;2023-05-10T09:59:29;16.70;35.70
17984;DHT22;9117;52.420;20.728;2023-05-10T10:01:59;16.80;36.70
17984;DHT22;9117;52.420;20.728;2023-05-10T10:04:27;16.80;34.60
17984;DHT22;9117;52.420;20.728;2023-05-10T10:07:04;16.90;36.40
17984;DHT22;9117;52.420;20.728;2023-05-10T10:09:34;17.00;35.20
17984;DHT22;9117;52.420;20.728;2023-05-10T10:12:03;17.10;35.90
17984;DHT22;9117;52.420;20.728;2023-05-10T10:14:31;17.00;33.70
17984;DHT22;9117;52.420;20.728;2023-05-10T10:17:00;16.80;34.00
17984;DHT22;9117;52.420;20.728;2023-05-10T10:19:33;17.00;35.90
17984;DHT22;9117;52.420;20.728;2023-05-10T10:22:02;16.90;34.60
17984;DHT22;9117;52.420;20.728;2023-05-10T10:24:32;16.70;35.10
17984;DHT22;9117;52.420;20.728;2023-05-10T10:27:09;16.70;34.70
17984;DHT22;9117;52.420;20.728;2023-05-10T10:29:51;16.90;35.20
17984;DHT22;9117;52.420;20.728;2023-05-10T10:32:26;17.00;35.40
17984;DHT22;9117;52.420;20.728;2023-05-10T10:34:56;17.00;33.90
17984;DHT22;9117;52.420;20.728;2023-05-10T10:37:42;17.10;35.10
17984;DHT22;9117;52.420;20.728;2023-05-10T10:40:25;17.00;34.40
17984;DHT22;9117;52.420;20.728;2023-05-10T10:42:53;16.80;34.00
17984;DHT22;9117;52.420;20.728;2023-05-10T10:45:23;16.90;34.10
17984;DHT22;9117;52.420;20.728;2023-05-10T10:50:57;16.80;34.60
17984;DHT22;9117;52.420;20.728;2023-05-10T10:53:26;17.30;34.80
17984;DHT22;9117;52.420;20.728;2023-05-10T10:56:05;17.20;33.10
17984;DHT22;9117;52.420;20.728;2023-05-10T10:58:36;17.30;33.00
17984;DHT22;9117;52.420;20.728;2023-05-10T11:01:13;17.20;33.60
17984;DHT22;9117;52.420;20.728;2023-05-10T11:06:38;17.50;33.30
17984;DHT22;9117;52.420;20.728;2023-05-10T11:09:07;17.60;33.40
17984;DHT22;9117;52.420;20.728;2023-05-10T11:11:48;17.70;34.10
17984;DHT22;9117;52.420;20.728;2023-05-10T11:14:20;17.70;33.80
17984;DHT22;9117;52.420;20.728;2023-05-10T11:16:48;17.40;32.40
17984;DHT22;9117;52.420;20.728;2023-05-10T11:19:17;17.20;34.00
17984;DHT22;9117;52.420;20.728;2023-05-10T11:21:47;17.30;32.90
17984;DHT22;9117;52.420;20.728;2023-05-10T11:24:17;17.30;32.90
17984;DHT22;9117;52.420;20.728;2023-05-10T11:26:49;17.50;32.30
17984;DHT22;9117;52.420;20.728;2023-05-10T11:29:18;17.60;32.60
17984;DHT22;9117;52.420;20.728;2023-05-10T11:31:47;17.80;32.50
17984;DHT22;9117;52.420;20.728;2023-05-10T11:34:26;17.80;32.20
17984;DHT22;9117;52.420;20.728;2023-05-10T11:36:55;17.50;32.10
17984;DHT22;9117;52.420;20.728;2023-05-10T11:39:26;17.80;32.80
17984;DHT22;9117;52.420;20.728;2023-05-10T11:41:56;17.90;32.00
17984;DHT22;9117;52.420;20.728;2023-05-10T11:44:29;18.00;32.20
17984;DHT22;9117;52.420;20.728;2023-05-10T11:46:58;18.00;32.00
17984;DHT22;9117;52.420;20.728;2023-05-10T11:49:27;18.10;32.70
17984;DHT22;9117;52.420;20.728;2023-05-10T11:52:04;18.20;31.20
17984;DHT22;9117;52.420;20.728;2023-05-10T11:54:32;18.20;31.20
17984;DHT22;9117;52.420;20.728;2023-05-10T11:57:03;18.30;31.30
17984;DHT22;9117;52.420;20.728;2023-05-10T11:59:31;18.40;32.40
17984;DHT22;9117;52.420;20.728;2023-05-10T12:02:00;18.20;32.30
17984;DHT22;9117;52.420;20.728;2023-05-10T12:04:28;18.40;32.20
17984;DHT22;9117;52.420;20.728;2023-05-10T12:06:57;18.50;32.10
17984;DHT22;9117;52.420;20.728;2023-05-10T12:09:25;18.50;32.30
17984;DHT22;9117;52.420;20.728;2023-05-10T12:11:56;18.40;31.60
17984;DHT22;9117;52.420;20.728;2023-05-10T12:14:26;18.70;32.20
17984;DHT22;9117;52.420;20.728;2023-05-10T12:16:57;18.60;32.50
17984;DHT22;9117;52.420;20.728;2023-05-10T12:19:25;18.70;31.40
17984;DHT22;9117;52.420;20.728;2023-05-10T12:21:53;18.30;30.40
17984;DHT22;9117;52.420;20.728;2023-05-10T12:24:21;18.30;31.70
17984;DHT22;9117;52.420;20.728;2023-05-10T12:26:51;18.40;31.80
17984;DHT22;9117;52.420;20.728;2023-05-10T12:29:19;18.70;31.10
17984;DHT22;9117;52.420;20.728;2023-05-10T12:31:57;18.50;30.40
17984;DHT22;9117;52.420;20.728;2023-05-10T12:34:27;18.60;31.40
17984;DHT22;9117;52.420;20.728;2023-05-10T12:36:57;18.50;31.20
17984;DHT22;9117;52.420;20.728;2023-05-10T12:39:25;18.50;31.10
17984;DHT22;9117;52.420;20.728;2023-05-10T12:41:54;18.60;31.30
17984;DHT22;9117;52.420;20.728;2023-05-10T12:44:22;18.80;30.50
17984;DHT22;9117;52.420;20.728;2023-05-10T12:46:50;19.40;30.60
17984;DHT22;9117;52.420;20.728;2023-05-10T12:49:20;19.20;30.20
17984;DHT22;9117;52.420;20.728;2023-05-10T12:51:48;19.40;31.10
17984;DHT22;9117;52.420;20.728;2023-05-10T12:54:16;19.20;30.10
17984;DHT22;9117;52.420;20.728;2023-05-10T12:56:44;19.20;30.00
17984;DHT22;9117;52.420;20.728;2023-05-10T12:59:12;19.30;30.50
17984;DHT22;9117;52.420;20.728;2023-05-10T13:01:41;19.50;31.50
17984;DHT22;9117;52.420;20.728;2023-05-10T13:04:09;20.40;32.10
17984;DHT22;9117;52.420;20.728;2023-05-10T13:06:39;20.10;29.50
17984;DHT22;9117;52.420;20.728;2023-05-10T13:09:07;20.40;31.00
17984;DHT22;9117;52.420;20.728;2023-05-10T13:11:35;19.90;30.00
17984;DHT22;9117;52.420;20.728;2023-05-10T13:14:03;19.40;29.90
17984;DHT22;9117;52.420;20.728;2023-05-10T13:16:31;19.70;29.20
17984;DHT22;9117;52.420;20.728;2023-05-10T13:19:00;20.00;30.20
17984;DHT22;9117;52.420;20.728;2023-05-10T13:21:28;19.60;29.90
17984;DHT22;9117;52.420;20.728;2023-05-10T13:23:58;19.10;29.90
17984;DHT22;9117;52.420;20.728;2023-05-10T13:26:27;19.30;29.70
17984;DHT22;9117;52.420;20.728;2023-05-10T13:28:55;19.70;29.30
17984;DHT22;9117;52.420;20.728;2023-05-10T13:31:23;19.30;29.40
17984;DHT22;9117;52.420;20.728;2023-05-10T13:33:51;19.50;29.20
17984;DHT22;9117;52.420;20.728;2023-05-10T13:36:20;19.10;28.80
17984;DHT22;9117;52.420;20.728;2023-05-10T13:38:49;19.60;29.80
17984;DHT22;9117;52.420;20.728;2023-05-10T13:41:19;19.40;29.20
17984;DHT22;9117;52.420;20.728;2023-05-10T13:43:47;19.30;29.00
17984;DHT22;9117;52.420;20.728;2023-05-10T13:46:16;20.00;29.70
17984;DHT22;9117;52.420;20.728;2023-05-10T13:48:44;20.00;29.40
17984;DHT22;9117;52.420;20.728;2023-05-10T13:51:12;20.80;29.60
17984;DHT22;9117;52.420;20.728;2023-05-10T13:53:40;20.20;29.50
17984;DHT22;9117;52.420;20.728;2023-05-10T13:56:09;20.40;30.60
17984;DHT22;9117;52.420;20.728;2023-05-10T13:58:38;20.80;29.60
17984;DHT22;9117;52.420;20.728;2023-05-10T14:01:06;21.40;29.70
17984;DHT22;9117;52.420;20.728;2023-05-10T14:03:35;20.90;30.60
17984;DHT22;9117;52.420;20.728;2023-05-10T14:06:04;21.10;29.90
17984;DHT22;9117;52.420;20.728;2023-05-10T14:08:34;20.50;30.00
17984;DHT22;9117;52.420;20.728;2023-05-10T14:11:03;20.40;30.50
17984;DHT22;9117;52.420;20.728;2023-05-10T14:13:31;20.30;30.80
17984;DHT22;9117;52.420;20.728;2023-05-10T14:16:01;20.40;30.00
17984;DHT22;9117;52.420;20.728;2023-05-10T14:18:29;20.20;28.80
17984;DHT22;9117;52.420;20.728;2023-05-10T14:20:57;20.00;28.90
17984;DHT22;9117;52.420;20.728;2023-05-10T14:23:25;20.70;29.60
17984;DHT22;9117;52.420;20.728;2023-05-10T14:25:55;21.20;30.00
17984;DHT22;9117;52.420;20.728;2023-05-10T14:28:24;21.10;30.10
17984;DHT22;9117;52.420;20.728;2023-05-10T14:30:52;21.20;30.00
17984;DHT22;9117;52.420;20.728;2023-05-10T14:33:22;21.30;31.30
17984;DHT22;9117;52.420;20.728;2023-05-10T14:35:50;21.60;29.30
17984;DHT22;9117;52.420;20.728;2023-05-10T14:38:18;21.90;29.80
17984;DHT22;9117;52.420;20.728;2023-05-10T14:40:46;21.80;29.20
17984;DHT22;9117;52.420;20.728;2023-05-10T14:43:14;22.20;29.30
17984;DHT22;9117;52.420;20.728;2023-05-10T14:45:43;21.80;28.40
17984;DHT22;9117;52.420;20.728;2023-05-10T14:48:11;20.90;27.80
17984;DHT22;9117;52.420;20.728;2023-05-10T14:50:43;21.40;29.10
17984;DHT22;9117;52.420;20.728;2023-05-10T14:53:11;21.90;28.70
17984;DHT22;9117;52.420;20.728;2023-05-10T14:55:40;22.80;27.60
17984;DHT22;9117;52.420;20.728;2023-05-10T14:58:08;22.50;27.30
17984;DHT22;9117;52.420;20.728;2023-05-10T15:00:36;22.20;27.90
17984;DHT22;9117;52.420;20.728;2023-05-10T15:03:05;21.00;27.80
17984;DHT22;9117;52.420;20.728;2023-05-10T15:05:33;20.80;28.00
17984;DHT22;9117;52.420;20.728;2023-05-10T15:08:05;21.10;29.20
17984;DHT22;9117;52.420;20.728;2023-05-10T15:10:33;21.70;28.00
17984;DHT22;9117;52.420;20.728;2023-05-10T15:13:02;22.10;27.80
17984;DHT22;9117;52.420;20.728;2023-05-10T15:15:31;21.70;27.70
17984;DHT22;9117;52.420;20.728;2023-05-10T15:17:59;22.60;28.00
17984;DHT22;9117;52.420;20.728;2023-05-10T15:20:27;22.60;27.90
17984;DHT22;9117;52.420;20.728;2023-05-10T15:22:55;22.60;26.70
17984;DHT22;9117;52.420;20.728;2023-05-10T15:25:25;22.20;26.80
17984;DHT22;9117;52.420;20.728;2023-05-10T15:27:54;21.20;27.00
17984;DHT22;9117;52.420;20.728;2023-05-10T15:30:22;21.10;27.00
17984;DHT22;9117;52.420;20.728;2023-05-10T15:32:50;21.40;27.00
17984;DHT22;9117;52.420;20.728;2023-05-10T15:35:19;20.60;26.90
17984;DHT22;9117;52.420;20.728;2023-05-10T15:37:48;20.70;27.20
17984;DHT22;9117;52.420;20.728;2023-05-10T15:40:16;20.80;27.40
17984;DHT22;9117;52.420;20.728;2023-05-10T15:42:46;20.80;27.00
17984;DHT22;9117;52.420;20.728;2023-05-10T15:45:14;20.80;27.50
17984;DHT22;9117;52.420;20.728;2023-05-10T15:47:43;21.20;28.30
17984;DHT22;9117;52.420;20.728;2023-05-10T15:50:12;21.40;27.80
17984;DHT22;9117;52.420;20.728;2023-05-10T15:52:40;21.80;27.00
17984;DHT22;9117;52.420;20.728;2023-05-10T15:55:09;22.50;28.10
17984;DHT22;9117;52.420;20.728;2023-05-10T15:57:39;21.80;27.40
17984;DHT22;9117;52.420;20.728;2023-05-10T16:00:11;21.50;28.10